Portada
METAR-TAF:

METAR-TAF

Aeroports :

Pattaya-Rayong, Tailàndia

latitud: 12-38N, longitud: 101-21E, altitud: 3 m

Observació

L'informe es va fer fa 41 minuts, a les 01:30 UTC
Vent 4 kt del Nord/Nord-Oest
Temperatura 27°C
Humitat 66%
Pressió 1011 hPa
Visibilitat: 9000 m
Escasses núvols a una alçada de 2000 ft

METAR: VTBU 280130Z 33004KT 9000 FEW020 27/20 Q1011 NOSIG

Hora: 09:11 (02:11 UTC)

Pronòstic

L'informe es va fer fa 3 hores i 11 minuts, a les 23:00 UTC
Pronòstic vàlid del 28 a les 00 UTC al 28 a les 24 UTC
Vent 10 kt del Sud
Visibilitat 10 km o més
Escasses núvols a una alçada de 2000 ft
Evolucionant progressivament
l' 28 a les 17 UTC al 28 a les 19 UTC
Vent 4 kt del Sud-Oest

TAF: VTBU 272300Z 2800/2824 17010KT 9999 FEW020 BECMG 2817/2819 23004KT

Observacions i pronòstics meteorològics de més de 4000 aeroports (METAR i TAF).

Les estacions disponibles són els punts grocs i vermells al mapa.

Posi el ratolí al punt desitjat per veure el nom de l'estació.

Feu clic per veure les observacions i els pronòstics meteorològics.

Per canviar el mapa: feu clic els botons verds amb una creu de color negre per apropar; al botó verd amb un guió per allunyar la imatge; o en les fletxes verdes per a mapes adjacents.


METAR-TAF: